createdAt,value
2022-07-26T00:01:52.601Z,22.36
2022-07-26T00:04:20.452Z,22.24
2022-07-26T00:06:47.881Z,22.22
2022-07-26T00:09:15.290Z,22.23
2022-07-26T00:11:42.930Z,22.26
2022-07-26T00:14:10.346Z,22.27
2022-07-26T00:16:38.345Z,22.22
2022-07-26T00:19:09.945Z,22.32
2022-07-26T00:21:40.745Z,22.32
2022-07-26T00:24:08.865Z,22.27
2022-07-26T00:26:36.270Z,22.19
2022-07-26T00:29:06.094Z,21.97
2022-07-26T00:31:34.235Z,22.01
2022-07-26T00:34:01.735Z,22.10
2022-07-26T00:36:29.825Z,22.07
2022-07-26T00:38:57.630Z,21.77
2022-07-26T00:41:25.096Z,21.97
2022-07-26T00:43:57.362Z,22.56
2022-07-26T00:46:25.203Z,22.92
2022-07-26T00:48:52.744Z,23.08
2022-07-26T00:51:21.032Z,23.05
2022-07-26T00:53:49.134Z,23.23
2022-07-26T00:56:16.939Z,23.12
2022-07-26T00:58:44.796Z,22.58
2022-07-26T01:01:12.571Z,23.14
2022-07-26T01:03:40.189Z,22.92
2022-07-26T01:06:07.676Z,23.11
2022-07-26T01:08:35.396Z,22.64
2022-07-26T01:11:02.890Z,23.55
2022-07-26T01:13:34.757Z,23.60
2022-07-26T01:16:03.659Z,23.74
2022-07-26T01:18:31.155Z,23.45
2022-07-26T01:21:00.897Z,22.78
2022-07-26T01:23:28.904Z,22.97
2022-07-26T01:25:59.625Z,22.95
2022-07-26T01:28:27.763Z,23.23
2022-07-26T01:30:55.694Z,22.93
2022-07-26T01:33:23.146Z,23.12
2022-07-26T01:35:50.836Z,23.14
2022-07-26T01:38:18.659Z,22.91
2022-07-26T01:40:46.068Z,23.04
2022-07-26T01:43:13.506Z,22.73
2022-07-26T01:45:41.250Z,22.65
2022-07-26T01:48:08.727Z,22.32
2022-07-26T01:50:36.929Z,22.37
2022-07-26T01:53:06.106Z,22.07
2022-07-26T01:55:34.327Z,21.81
2022-07-26T01:58:01.883Z,21.84
2022-07-26T02:00:29.617Z,22.02
2022-07-26T02:02:57.709Z,22.48
2022-07-26T02:05:25.261Z,22.66
2022-07-26T02:07:52.725Z,23.17
2022-07-26T02:10:20.836Z,22.70
2022-07-26T02:12:49.643Z,23.20
2022-07-26T02:15:17.210Z,23.25
2022-07-26T02:17:44.954Z,23.19
2022-07-26T02:20:12.979Z,21.32
2022-07-26T02:22:40.399Z,20.79
2022-07-26T02:25:08.237Z,20.88
2022-07-26T02:27:35.716Z,20.86
2022-07-26T02:30:03.608Z,20.57
2022-07-26T02:32:31.369Z,21.02
2022-07-26T02:34:58.746Z,21.15
2022-07-26T02:37:26.148Z,21.07
2022-07-26T02:39:53.922Z,21.10
2022-07-26T02:42:22.532Z,20.72
2022-07-26T02:44:50.000Z,20.78
2022-07-26T02:47:17.707Z,20.98
2022-07-26T02:49:45.099Z,21.23
2022-07-26T02:52:12.649Z,21.10
2022-07-26T02:54:40.293Z,21.09
2022-07-26T02:57:07.763Z,21.13
2022-07-26T02:59:35.160Z,21.00
2022-07-26T03:02:03.046Z,20.64
2022-07-26T03:04:30.498Z,20.82
2022-07-26T03:06:57.919Z,20.89
2022-07-26T03:09:25.692Z,20.91
2022-07-26T03:11:53.321Z,20.90
2022-07-26T03:14:20.716Z,21.12
2022-07-26T03:16:48.381Z,21.20
2022-07-26T03:19:15.777Z,21.31
2022-07-26T03:21:43.154Z,21.41
2022-07-26T03:24:11.137Z,21.24
2022-07-26T03:26:38.933Z,21.05
2022-07-26T03:29:06.433Z,20.97
2022-07-26T03:31:36.383Z,20.78
2022-07-26T03:34:04.402Z,20.93
2022-07-26T03:36:32.105Z,20.78
2022-07-26T03:39:00.518Z,20.81
2022-07-26T03:41:28.037Z,20.80
2022-07-26T03:43:55.460Z,20.84
2022-07-26T03:46:23.382Z,20.53
2022-07-26T03:48:50.872Z,20.41
2022-07-26T03:51:18.336Z,20.55
2022-07-26T03:53:46.071Z,20.59
2022-07-26T03:56:28.934Z,20.73
2022-07-26T03:58:59.101Z,21.05
2022-07-26T04:01:27.232Z,21.25
2022-07-26T04:03:54.946Z,21.29
2022-07-26T04:06:23.173Z,21.29
2022-07-26T04:08:50.730Z,21.40
2022-07-26T04:11:18.507Z,21.52
2022-07-26T04:13:46.114Z,22.05
2022-07-26T04:16:14.455Z,23.11
2022-07-26T04:18:42.624Z,23.27
2022-07-26T04:21:10.092Z,21.88
2022-07-26T04:23:37.485Z,22.05
2022-07-26T04:26:05.631Z,21.91
2022-07-26T04:28:33.415Z,21.77
2022-07-26T04:31:00.983Z,22.09
2022-07-26T04:33:28.720Z,21.80
2022-07-26T04:35:56.213Z,21.49
2022-07-26T04:38:23.673Z,20.99
2022-07-26T04:40:51.899Z,21.43
2022-07-26T04:43:19.824Z,21.51
2022-07-26T04:45:47.608Z,22.06
2022-07-26T04:48:16.013Z,22.60
2022-07-26T04:50:43.714Z,23.30
2022-07-26T04:53:11.288Z,22.85
2022-07-26T04:55:39.553Z,22.71
2022-07-26T04:58:07.253Z,22.84
2022-07-26T05:00:51.106Z,22.71
2022-07-26T05:03:25.305Z,22.96
2022-07-26T05:05:52.891Z,22.97
2022-07-26T05:08:20.442Z,22.97
2022-07-26T05:10:53.133Z,23.07
2022-07-26T05:13:29.465Z,23.12
2022-07-26T05:15:59.651Z,23.50
2022-07-26T05:18:27.617Z,23.35
2022-07-26T05:20:57.709Z,23.21
2022-07-26T05:23:25.158Z,23.44
2022-07-26T05:25:52.987Z,23.92
2022-07-26T05:28:20.763Z,23.88
2022-07-26T05:30:48.373Z,23.96
2022-07-26T05:33:16.599Z,23.91
2022-07-26T05:35:44.653Z,24.19
2022-07-26T05:38:12.385Z,24.35
2022-07-26T05:40:39.818Z,25.14
2022-07-26T05:43:07.756Z,25.36
2022-07-26T05:45:35.214Z,25.15
2022-07-26T05:48:02.692Z,24.92
2022-07-26T05:50:30.485Z,25.60
2022-07-26T05:52:58.280Z,25.47
2022-07-26T05:55:25.672Z,25.61
2022-07-26T05:57:53.329Z,25.09
2022-07-26T06:00:21.179Z,25.86
2022-07-26T06:02:49.343Z,25.90
2022-07-26T06:05:17.537Z,25.88
2022-07-26T06:07:44.950Z,25.29
2022-07-26T06:10:13.551Z,25.87
2022-07-26T06:12:41.196Z,26.58
2022-07-26T06:15:15.415Z,26.19
2022-07-26T06:17:43.811Z,26.65
2022-07-26T06:20:11.573Z,26.60
2022-07-26T06:22:39.022Z,26.71
2022-07-26T06:25:07.315Z,26.92
2022-07-26T06:27:34.793Z,26.71
2022-07-26T06:30:02.236Z,26.99
2022-07-26T06:32:29.929Z,27.31
2022-07-26T06:34:57.365Z,27.16
2022-07-26T06:37:24.986Z,27.11
2022-07-26T06:39:53.138Z,27.12
2022-07-26T06:42:20.548Z,27.18
2022-07-26T06:44:48.109Z,26.74
2022-07-26T06:47:15.832Z,26.87
2022-07-26T06:49:44.827Z,26.96
2022-07-26T06:52:12.303Z,26.91
2022-07-26T06:54:40.029Z,27.21
2022-07-26T06:57:07.958Z,27.10
2022-07-26T06:59:35.480Z,26.80
2022-07-26T07:02:04.040Z,27.33
2022-07-26T07:04:33.257Z,27.60
2022-07-26T07:07:06.453Z,27.81
2022-07-26T07:09:35.289Z,27.69
2022-07-26T07:12:09.813Z,27.84
2022-07-26T07:14:39.479Z,27.88
2022-07-26T07:17:13.109Z,28.22
2022-07-26T07:19:42.716Z,28.06
2022-07-26T07:22:12.235Z,28.25
2022-07-26T07:24:40.465Z,28.79
2022-07-26T07:27:08.525Z,28.80
2022-07-26T07:29:36.213Z,29.16
2022-07-26T07:32:03.956Z,29.40
2022-07-26T07:34:31.703Z,29.60
2022-07-26T07:36:59.942Z,29.76
2022-07-26T07:39:34.529Z,29.76
2022-07-26T07:42:06.236Z,29.75
2022-07-26T07:44:33.651Z,30.27
2022-07-26T07:47:01.198Z,30.51
2022-07-26T07:49:28.961Z,30.74
2022-07-26T07:51:56.441Z,30.19
2022-07-26T07:54:23.877Z,29.87
2022-07-26T07:56:55.059Z,28.54
2022-07-26T07:59:23.633Z,28.88
2022-07-26T08:01:51.319Z,28.68
2022-07-26T08:04:19.161Z,29.33
2022-07-26T08:06:50.078Z,29.29
2022-07-26T08:09:19.565Z,28.64
2022-07-26T08:11:51.120Z,28.24
2022-07-26T08:14:19.436Z,28.31
2022-07-26T08:16:47.081Z,28.64
2022-07-26T08:19:15.690Z,28.87
2022-07-26T08:21:46.090Z,28.77
2022-07-26T08:24:14.525Z,29.17
2022-07-26T08:26:42.013Z,28.59
2022-07-26T08:29:10.141Z,27.86
2022-07-26T08:31:37.939Z,28.52
2022-07-26T08:34:05.370Z,29.23
2022-07-26T08:36:33.329Z,29.31
2022-07-26T08:39:01.687Z,29.40
2022-07-26T08:41:29.270Z,29.73
2022-07-26T08:44:05.541Z,30.25
2022-07-26T08:46:36.273Z,30.59
2022-07-26T08:49:06.121Z,30.84
2022-07-26T08:51:34.294Z,30.54
2022-07-26T08:54:05.677Z,30.43
2022-07-26T08:56:35.530Z,30.42
2022-07-26T08:59:05.585Z,30.58
2022-07-26T09:01:33.648Z,30.59
2022-07-26T09:04:31.189Z,30.18
2022-07-26T09:07:05.787Z,30.14
2022-07-26T09:09:38.839Z,30.59
2022-07-26T09:12:18.314Z,30.27
2022-07-26T09:14:47.194Z,29.92
2022-07-26T09:17:16.670Z,30.13
2022-07-26T09:19:45.173Z,29.52
2022-07-26T09:22:16.921Z,28.72
2022-07-26T09:24:46.570Z,28.19
2022-07-26T09:27:16.696Z,27.89
2022-07-26T09:29:48.046Z,27.71
2022-07-26T09:32:20.975Z,27.04
2022-07-26T09:35:44.183Z,26.93
2022-07-26T09:37:59.247Z,26.66
2022-07-26T09:40:34.689Z,26.43
2022-07-26T09:43:05.521Z,25.84
2022-07-26T09:45:36.089Z,26.07
2022-07-26T09:48:04.319Z,26.06
2022-07-26T09:50:33.033Z,26.23
2022-07-26T09:53:10.396Z,26.11
2022-07-26T09:55:45.147Z,25.97
2022-07-26T09:58:14.454Z,25.21
2022-07-26T10:00:43.627Z,24.26
2022-07-26T10:03:12.022Z,24.73
2022-07-26T10:05:39.533Z,24.51
2022-07-26T10:08:08.008Z,24.03
2022-07-26T10:10:40.394Z,24.28
2022-07-26T10:13:08.818Z,23.69
2022-07-26T10:15:43.579Z,23.50
2022-07-26T10:18:16.754Z,23.55
2022-07-26T10:20:48.976Z,23.15
2022-07-26T10:23:35.057Z,23.27
2022-07-26T10:26:04.373Z,22.80
2022-07-26T10:28:33.841Z,23.05
2022-07-26T10:31:26.726Z,23.05
2022-07-26T10:33:55.409Z,22.63
2022-07-26T10:36:25.717Z,23.16
2022-07-26T10:39:12.011Z,23.19
2022-07-26T10:41:44.660Z,22.88
2022-07-26T10:44:23.718Z,22.81
2022-07-26T10:47:10.055Z,22.94
2022-07-26T10:49:40.394Z,23.01
2022-07-26T10:52:12.993Z,22.99
2022-07-26T10:54:59.144Z,23.02
2022-07-26T10:57:27.730Z,23.32
2022-07-26T10:59:57.873Z,22.63
2022-07-26T11:02:32.642Z,22.95
2022-07-26T11:05:15.070Z,22.96
2022-07-26T11:08:10.442Z,23.20
2022-07-26T11:10:39.684Z,23.40
2022-07-26T11:13:12.837Z,23.28
2022-07-26T11:15:45.928Z,23.37
2022-07-26T11:18:28.269Z,23.42
2022-07-26T11:20:57.794Z,23.44
2022-07-26T11:23:33.661Z,23.70
2022-07-26T11:26:15.168Z,23.58
2022-07-26T11:29:06.231Z,23.84
2022-07-26T11:31:55.917Z,24.20
2022-07-26T11:34:35.847Z,24.14
2022-07-26T11:37:04.976Z,23.99
2022-07-26T11:39:34.185Z,23.74
2022-07-26T11:42:04.390Z,23.80
2022-07-26T11:44:32.606Z,23.94
2022-07-26T11:47:01.001Z,24.20
2022-07-26T11:52:25.053Z,24.12
2022-07-26T11:54:53.778Z,24.16
2022-07-26T11:57:22.230Z,24.10
2022-07-26T11:59:51.378Z,24.13
2022-07-26T12:02:20.673Z,24.38
2022-07-26T12:04:48.397Z,24.56
2022-07-26T12:07:18.557Z,24.49
2022-07-26T12:09:51.505Z,24.55
2022-07-26T12:12:31.889Z,24.49
2022-07-26T12:15:05.718Z,24.39
2022-07-26T12:17:35.740Z,24.46
2022-07-26T12:20:17.437Z,24.74
2022-07-26T12:22:57.686Z,24.29
2022-07-26T12:25:29.372Z,24.52
2022-07-26T12:27:57.326Z,24.75
2022-07-26T12:30:25.699Z,24.00
2022-07-26T12:33:02.273Z,24.66
2022-07-26T12:35:35.607Z,24.59
2022-07-26T12:38:03.541Z,24.33
2022-07-26T12:40:40.393Z,24.50
2022-07-26T12:43:08.811Z,23.77
2022-07-26T12:45:36.406Z,23.86
2022-07-26T12:48:10.163Z,24.24
2022-07-26T12:50:37.989Z,24.00
2022-07-26T12:53:07.247Z,23.92
2022-07-26T12:55:35.603Z,23.92
2022-07-26T12:58:03.323Z,24.29
2022-07-26T13:00:30.898Z,24.25
2022-07-26T13:02:58.361Z,24.44
2022-07-26T13:05:26.062Z,24.36
2022-07-26T13:07:54.286Z,24.69
2022-07-26T13:10:33.112Z,25.03
2022-07-26T13:13:02.110Z,25.47
2022-07-26T13:15:37.267Z,25.44
2022-07-26T13:18:07.328Z,25.89
2022-07-26T13:20:37.847Z,26.18
2022-07-26T13:23:06.898Z,26.44
2022-07-26T13:25:39.638Z,26.61
2022-07-26T13:28:08.600Z,26.47
2022-07-26T13:30:37.647Z,25.51
2022-07-26T13:33:05.290Z,26.02
2022-07-26T13:35:32.991Z,26.19
2022-07-26T13:38:00.403Z,26.24
2022-07-26T13:40:31.583Z,26.05
2022-07-26T13:43:00.299Z,25.56
2022-07-26T13:45:29.035Z,25.76
2022-07-26T13:47:58.897Z,25.82
2022-07-26T13:50:28.408Z,26.17
2022-07-26T13:52:56.734Z,26.21
2022-07-26T13:55:25.104Z,25.96
2022-07-26T13:57:56.130Z,26.04
2022-07-26T14:00:27.169Z,26.65
2022-07-26T14:02:56.027Z,26.67
2022-07-26T14:05:24.522Z,25.43
2022-07-26T14:07:52.155Z,26.12
2022-07-26T14:10:20.913Z,26.37
2022-07-26T14:12:48.600Z,26.23
2022-07-26T14:15:21.587Z,26.80
2022-07-26T14:17:52.946Z,26.76
2022-07-26T14:20:21.506Z,26.79
2022-07-26T14:22:53.376Z,25.65
2022-07-26T14:25:25.119Z,25.76
2022-07-26T14:27:54.171Z,25.87
2022-07-26T14:30:22.375Z,25.40
2022-07-26T14:32:49.875Z,25.91
2022-07-26T14:35:17.452Z,26.51
2022-07-26T14:37:46.099Z,26.49
2022-07-26T14:40:15.619Z,25.66
2022-07-26T14:42:43.422Z,25.54
2022-07-26T14:45:11.650Z,25.66
2022-07-26T14:47:39.305Z,25.39
2022-07-26T14:50:08.157Z,25.76
2022-07-26T14:52:40.990Z,26.36
2022-07-26T14:55:09.193Z,26.01
2022-07-26T14:57:39.273Z,26.24
2022-07-26T15:00:10.023Z,26.63
2022-07-26T15:02:43.075Z,26.65
2022-07-26T15:05:12.221Z,25.76
2022-07-26T15:07:40.794Z,25.81
2022-07-26T15:10:10.619Z,26.33
2022-07-26T15:12:38.760Z,26.15
2022-07-26T15:15:08.767Z,26.22
2022-07-26T15:17:36.468Z,26.34
2022-07-26T15:20:05.159Z,26.62
2022-07-26T15:22:32.995Z,26.15
2022-07-26T15:25:00.441Z,26.55
2022-07-26T15:27:27.891Z,26.16
2022-07-26T15:30:01.046Z,26.31
2022-07-26T15:32:31.777Z,26.22
2022-07-26T15:34:59.741Z,25.45
2022-07-26T15:37:27.711Z,25.57
2022-07-26T15:39:55.143Z,26.26
2022-07-26T15:42:23.353Z,26.71
2022-07-26T15:44:50.970Z,26.52
2022-07-26T15:47:36.947Z,26.68
2022-07-26T15:50:08.431Z,25.74
2022-07-26T15:52:42.242Z,26.68
2022-07-26T15:55:11.624Z,25.96
2022-07-26T15:57:39.368Z,26.44
2022-07-26T16:00:11.071Z,26.29
2022-07-26T16:02:40.690Z,25.53
2022-07-26T16:05:09.054Z,26.14
2022-07-26T16:07:36.459Z,26.45
2022-07-26T16:10:04.832Z,26.03
2022-07-26T16:12:33.270Z,26.39
2022-07-26T16:15:00.947Z,25.78
2022-07-26T16:17:28.670Z,26.31
2022-07-26T16:19:56.138Z,25.85
2022-07-26T16:22:23.931Z,26.83
2022-07-26T16:24:51.734Z,26.80
2022-07-26T16:27:19.331Z,26.85
2022-07-26T16:29:51.996Z,27.08
2022-07-26T16:32:21.427Z,26.72
2022-07-26T16:34:49.155Z,26.00
2022-07-26T16:37:16.606Z,26.28
2022-07-26T16:39:44.584Z,26.31
2022-07-26T16:42:12.256Z,26.14
2022-07-26T16:44:39.786Z,26.45
2022-07-26T16:47:07.612Z,26.53
2022-07-26T16:59:39.791Z,26.70
2022-07-26T17:02:09.131Z,26.70
2022-07-26T17:04:36.847Z,26.70
2022-07-26T17:09:52.174Z,26.56
2022-07-26T17:12:19.634Z,26.41
2022-07-26T17:14:47.103Z,26.35
2022-07-26T17:17:14.887Z,26.33
2022-07-26T17:19:42.297Z,26.70
2022-07-26T17:22:09.695Z,26.40
2022-07-26T17:24:37.388Z,26.18
2022-07-26T17:27:05.161Z,26.55
2022-07-26T17:29:33.494Z,26.16
2022-07-26T17:32:01.379Z,26.55
2022-07-26T17:34:28.810Z,26.39
2022-07-26T17:36:58.511Z,26.39
2022-07-26T17:39:40.369Z,26.52
2022-07-26T17:42:14.864Z,26.16
2022-07-26T17:44:42.691Z,26.20
2022-07-26T17:47:28.355Z,25.89
2022-07-26T17:50:13.898Z,25.70
2022-07-26T17:52:47.598Z,25.61
2022-07-26T17:55:15.780Z,25.64
2022-07-26T17:57:43.204Z,25.63
2022-07-26T18:00:11.557Z,25.63
2022-07-26T18:02:39.314Z,25.50
2022-07-26T18:05:07.059Z,25.77
2022-07-26T18:07:34.611Z,25.79
2022-07-26T18:10:02.839Z,25.56
2022-07-26T18:12:31.304Z,25.79
2022-07-26T18:14:58.907Z,25.29
2022-07-26T18:17:26.840Z,25.50
2022-07-26T18:19:54.367Z,25.44
2022-07-26T18:22:23.253Z,25.18
2022-07-26T18:24:51.238Z,25.35
2022-07-26T18:27:19.682Z,25.23
2022-07-26T18:29:47.340Z,25.61
2022-07-26T18:32:15.377Z,25.47
2022-07-26T18:34:51.713Z,25.65
2022-07-26T18:37:20.581Z,25.57
2022-07-26T18:39:52.719Z,25.64
2022-07-26T18:42:23.260Z,25.33
2022-07-26T18:44:50.730Z,25.60
2022-07-26T18:47:18.269Z,25.36
2022-07-26T18:49:46.001Z,25.09
2022-07-26T18:52:13.433Z,25.18
2022-07-26T18:54:40.835Z,25.24
2022-07-26T18:57:08.559Z,25.21
2022-07-26T18:59:36.070Z,25.10
2022-07-26T19:02:04.309Z,24.84
2022-07-26T19:04:32.156Z,25.07
2022-07-26T19:06:59.679Z,25.15
2022-07-26T19:09:27.084Z,25.02
2022-07-26T19:11:55.217Z,24.89
2022-07-26T19:14:22.639Z,24.67
2022-07-26T19:16:50.370Z,25.30
2022-07-26T19:19:18.043Z,25.03
2022-07-26T19:21:47.283Z,24.97
2022-07-26T19:24:14.926Z,25.06
2022-07-26T19:26:42.702Z,25.15
2022-07-26T19:29:10.407Z,25.18
2022-07-26T19:31:40.370Z,24.71
2022-07-26T19:34:08.132Z,24.45
2022-07-26T19:36:35.570Z,24.59
2022-07-26T19:39:04.267Z,24.46
2022-07-26T19:41:31.987Z,24.49
2022-07-26T19:43:59.431Z,24.37
2022-07-26T19:46:26.946Z,24.38
2022-07-26T19:48:55.490Z,24.23
2022-07-26T19:51:23.056Z,23.81
2022-07-26T19:53:50.526Z,24.27
2022-07-26T19:56:18.457Z,24.32
2022-07-26T19:58:46.282Z,24.45
2022-07-26T20:01:14.004Z,24.18
2022-07-26T20:03:41.886Z,23.90
2022-07-26T20:06:09.324Z,24.16
2022-07-26T20:08:36.733Z,24.10
2022-07-26T20:11:04.428Z,24.42
2022-07-26T20:13:31.900Z,23.71
2022-07-26T20:15:59.992Z,24.29
2022-07-26T20:18:28.358Z,24.17
2022-07-26T20:20:56.337Z,24.27
2022-07-26T20:23:24.463Z,23.78
2022-07-26T20:25:52.142Z,22.81
2022-07-26T20:28:19.939Z,23.91
2022-07-26T20:30:48.499Z,23.88
2022-07-26T20:33:16.625Z,24.27
2022-07-26T20:35:44.563Z,23.96
2022-07-26T20:38:12.022Z,24.35
2022-07-26T20:40:40.161Z,24.36
2022-07-26T20:43:07.600Z,24.35
2022-07-26T20:45:35.168Z,24.33
2022-07-26T20:48:03.088Z,24.50
2022-07-26T20:50:30.539Z,24.26
2022-07-26T20:52:58.151Z,24.07
2022-07-26T20:55:25.893Z,24.06
2022-07-26T20:57:53.350Z,24.17
2022-07-26T21:00:20.850Z,24.24
2022-07-26T21:02:48.606Z,23.95
2022-07-26T21:05:16.089Z,23.83
2022-07-26T21:07:55.164Z,24.03
2022-07-26T21:10:29.264Z,23.70
2022-07-26T21:13:00.207Z,24.12
2022-07-26T21:15:29.080Z,23.79
2022-07-26T21:17:57.162Z,23.93
2022-07-26T21:20:24.800Z,23.98
2022-07-26T21:22:52.526Z,24.13
2022-07-26T21:25:20.081Z,23.53
2022-07-26T21:27:47.493Z,23.22
2022-07-26T21:30:15.184Z,22.47
2022-07-26T21:32:42.634Z,23.00
2022-07-26T21:35:10.456Z,22.85
2022-07-26T21:37:39.106Z,22.48
2022-07-26T21:40:09.032Z,22.95
2022-07-26T21:42:36.415Z,23.41
2022-07-26T21:45:05.023Z,23.15
2022-07-26T21:47:33.225Z,22.90
2022-07-26T21:50:00.648Z,23.81
2022-07-26T21:52:28.337Z,23.71
2022-07-26T21:54:55.753Z,24.04
2022-07-26T21:57:23.200Z,23.77
2022-07-26T21:59:50.954Z,23.69
2022-07-26T22:02:19.951Z,23.57
2022-07-26T22:04:49.658Z,22.60
2022-07-26T22:07:17.100Z,22.05
2022-07-26T22:09:44.562Z,21.12
2022-07-26T22:12:12.256Z,20.80
2022-07-26T22:14:39.713Z,20.80
2022-07-26T22:17:07.146Z,20.83
2022-07-26T22:19:34.829Z,20.70
2022-07-26T22:22:04.698Z,20.82
2022-07-26T22:24:32.416Z,20.72
2022-07-26T22:27:00.112Z,20.74
2022-07-26T22:29:28.023Z,20.71
2022-07-26T22:32:07.510Z,20.60
2022-07-26T22:34:34.939Z,20.69
2022-07-26T22:37:02.378Z,20.31
2022-07-26T22:39:30.204Z,20.37
2022-07-26T22:42:15.002Z,20.43
2022-07-26T22:44:43.797Z,20.56
2022-07-26T22:47:11.250Z,20.44
2022-07-26T22:49:38.798Z,20.40
2022-07-26T22:52:06.547Z,20.45
2022-07-26T22:54:33.957Z,20.26
2022-07-26T22:57:01.368Z,20.15
2022-07-26T22:59:29.164Z,20.42
2022-07-26T23:01:57.045Z,20.19
2022-07-26T23:04:24.597Z,20.13
2022-07-26T23:06:52.482Z,20.41
2022-07-26T23:09:22.303Z,20.40
2022-07-26T23:11:49.745Z,21.76
2022-07-26T23:14:17.517Z,22.05
2022-07-26T23:16:45.116Z,22.23
2022-07-26T23:19:13.050Z,21.91
2022-07-26T23:21:40.963Z,21.70
2022-07-26T23:24:08.499Z,21.64
2022-07-26T23:26:36.018Z,20.19
2022-07-26T23:29:04.603Z,21.06
2022-07-26T23:31:32.059Z,21.17
2022-07-26T23:33:59.618Z,20.83
2022-07-26T23:36:28.798Z,20.03
2022-07-26T23:38:58.482Z,20.86
2022-07-26T23:41:26.834Z,20.94
2022-07-26T23:43:55.036Z,21.05
2022-07-26T23:46:23.160Z,21.24
2022-07-26T23:48:51.401Z,20.72
2022-07-26T23:51:19.714Z,20.71
2022-07-26T23:53:47.583Z,19.87
2022-07-26T23:56:15.539Z,21.26
2022-07-26T23:58:43.457Z,20.77
